createdAt,value
2022-08-17T00:02:26.501Z,25.38
2022-08-17T00:07:28.575Z,25.34
2022-08-17T00:12:42.055Z,25.16
2022-08-17T00:17:51.720Z,25.35
2022-08-17T00:23:07.096Z,25.35
2022-08-17T00:28:08.668Z,25.36
2022-08-17T00:33:17.021Z,25.32
2022-08-17T00:38:18.730Z,25.30
2022-08-17T00:43:32.094Z,25.33
2022-08-17T00:48:33.623Z,25.30
2022-08-17T00:53:37.075Z,25.25
2022-08-17T00:58:38.610Z,25.25
2022-08-17T01:03:40.144Z,25.20
2022-08-17T01:08:41.668Z,25.22
2022-08-17T01:13:43.361Z,25.17
2022-08-17T01:18:45.947Z,25.19
2022-08-17T01:23:47.454Z,25.17
2022-08-17T01:28:54.767Z,24.95
2022-08-17T01:33:59.451Z,25.08
2022-08-17T01:39:05.271Z,24.95
2022-08-17T01:44:07.400Z,25.05
2022-08-17T01:49:10.721Z,25.15
2022-08-17T01:54:13.772Z,25.17
2022-08-17T01:59:16.436Z,25.18
2022-08-17T02:04:17.999Z,25.18
2022-08-17T02:09:20.281Z,25.17
2022-08-17T02:14:25.012Z,25.11
2022-08-17T02:19:26.537Z,24.97
2022-08-17T02:24:59.608Z,24.97
2022-08-17T02:29:52.551Z,24.72
2022-08-17T02:34:54.082Z,24.67
2022-08-17T02:39:58.802Z,24.54
2022-08-17T02:45:01.371Z,24.53
2022-08-17T02:50:03.641Z,24.34
2022-08-17T02:55:19.267Z,24.45
2022-08-17T03:00:23.988Z,24.55
2022-08-17T03:05:26.614Z,24.46
2022-08-17T03:10:29.625Z,24.46
2022-08-17T03:15:32.300Z,24.34
2022-08-17T03:20:34.036Z,24.37
2022-08-17T03:25:42.692Z,24.45
2022-08-17T03:30:45.610Z,24.28
2022-08-17T03:35:47.294Z,24.46
2022-08-17T03:40:57.765Z,24.05
2022-08-17T03:46:35.227Z,24.15
2022-08-17T03:51:55.871Z,24.36
2022-08-17T03:57:06.590Z,24.25
2022-08-17T04:02:11.055Z,24.26
2022-08-17T04:07:12.662Z,24.47
2022-08-17T04:12:15.826Z,24.53
2022-08-17T04:17:17.344Z,24.56
2022-08-17T04:22:32.945Z,24.51
2022-08-17T04:27:35.909Z,24.60
2022-08-17T04:33:06.243Z,24.70
2022-08-17T04:38:10.460Z,24.75
2022-08-17T04:43:14.250Z,24.77
2022-08-17T04:48:15.776Z,24.65
2022-08-17T04:53:17.924Z,24.68
2022-08-17T04:58:19.643Z,24.74
2022-08-17T05:03:21.171Z,24.81
2022-08-17T05:08:22.696Z,24.62
2022-08-17T05:13:25.402Z,24.81
2022-08-17T05:18:27.635Z,24.87
2022-08-17T05:23:41.902Z,24.81
2022-08-17T05:28:44.768Z,24.87
2022-08-17T05:33:47.676Z,24.76
2022-08-17T05:38:49.192Z,24.90
2022-08-17T05:43:54.359Z,24.89
2022-08-17T05:49:00.899Z,24.97
2022-08-17T05:54:39.805Z,24.91
2022-08-17T05:59:50.364Z,24.94
2022-08-17T06:05:25.298Z,24.98
2022-08-17T06:10:39.930Z,24.92
2022-08-17T06:16:02.195Z,24.94
2022-08-17T06:21:04.678Z,25.05
2022-08-17T06:26:11.563Z,25.04
2022-08-17T06:31:34.688Z,24.96
2022-08-17T06:37:09.249Z,25.07
2022-08-17T06:42:54.007Z,25.19
2022-08-17T06:48:02.651Z,25.19
2022-08-17T06:53:40.055Z,25.27
2022-08-17T06:58:43.325Z,25.29
2022-08-17T07:03:54.340Z,25.46
2022-08-17T07:09:08.250Z,24.83
2022-08-17T07:14:20.212Z,25.28
2022-08-17T07:19:23.665Z,25.37
2022-08-17T07:24:30.802Z,25.32
2022-08-17T07:29:33.735Z,24.55
2022-08-17T07:35:02.973Z,25.48
2022-08-17T07:40:27.078Z,25.39
2022-08-17T07:45:47.046Z,25.38
2022-08-17T07:50:50.836Z,25.62
2022-08-17T07:55:53.238Z,25.76
2022-08-17T08:01:09.366Z,25.29
2022-08-17T08:06:23.577Z,24.68
2022-08-17T08:11:33.542Z,24.87
2022-08-17T08:16:35.228Z,25.55
2022-08-17T08:21:49.239Z,25.66
2022-08-17T08:26:56.836Z,25.82
2022-08-17T08:32:07.618Z,26.08
2022-08-17T08:37:47.603Z,25.75
2022-08-17T08:43:02.293Z,25.87
2022-08-17T08:48:46.276Z,25.71
2022-08-17T08:53:49.359Z,26.20
2022-08-17T08:59:07.643Z,26.18
2022-08-17T09:05:10.659Z,25.98
2022-08-17T09:10:09.217Z,26.09
2022-08-17T09:15:29.275Z,26.06
2022-08-17T09:20:35.814Z,25.78
2022-08-17T09:25:49.878Z,26.17
2022-08-17T09:30:55.297Z,26.31
2022-08-17T09:36:02.779Z,26.23
2022-08-17T09:41:18.211Z,25.91
2022-08-17T09:46:24.804Z,25.90
2022-08-17T09:51:40.125Z,26.37
2022-08-17T09:57:29.906Z,26.36
2022-08-17T10:02:53.499Z,26.85
2022-08-17T10:08:02.441Z,26.66
2022-08-17T10:13:16.323Z,26.84
2022-08-17T10:18:42.242Z,26.96
2022-08-17T10:24:02.331Z,26.94
2022-08-17T10:29:12.414Z,26.53
2022-08-17T10:34:28.714Z,25.85
2022-08-17T10:39:52.483Z,25.99
2022-08-17T10:45:26.792Z,26.35
2022-08-17T10:50:47.401Z,26.63
2022-08-17T10:56:13.723Z,26.83
2022-08-17T11:01:16.047Z,26.97
2022-08-17T11:06:21.491Z,27.00
2022-08-17T11:11:47.268Z,26.65
2022-08-17T11:17:11.340Z,26.05
2022-08-17T11:22:33.372Z,26.54
2022-08-17T11:27:35.471Z,26.51
2022-08-17T11:32:47.096Z,26.31
2022-08-17T11:38:17.390Z,26.35
2022-08-17T11:43:38.351Z,26.28
2022-08-17T11:49:30.526Z,25.87
2022-08-17T11:54:47.571Z,25.76
2022-08-17T11:59:51.763Z,25.36
2022-08-17T12:05:12.126Z,25.86
2022-08-17T12:10:17.145Z,25.23
2022-08-17T12:15:21.292Z,25.70
2022-08-17T12:20:33.557Z,25.74
2022-08-17T12:25:47.693Z,25.83
2022-08-17T12:30:50.052Z,25.80
2022-08-17T12:36:03.086Z,25.38
2022-08-17T12:41:24.887Z,25.90
2022-08-17T12:46:26.482Z,25.95
2022-08-17T12:51:29.208Z,25.69
2022-08-17T12:56:31.327Z,25.70
2022-08-17T13:01:34.956Z,25.30
2022-08-17T13:06:37.305Z,25.82
2022-08-17T13:11:56.244Z,25.49
2022-08-17T13:16:59.837Z,25.91
2022-08-17T13:22:01.575Z,26.08
2022-08-17T13:27:10.205Z,26.22
2022-08-17T13:32:13.736Z,26.03
2022-08-17T13:37:28.992Z,26.10
2022-08-17T13:42:52.058Z,25.94
2022-08-17T13:48:25.440Z,25.99
2022-08-17T13:53:32.773Z,25.89
2022-08-17T13:58:37.133Z,25.43
2022-08-17T14:03:38.657Z,25.84
2022-08-17T14:08:43.657Z,25.87
2022-08-17T14:13:46.282Z,25.53
2022-08-17T14:18:56.023Z,25.47
2022-08-17T14:23:58.863Z,25.70
2022-08-17T14:29:00.587Z,25.30
2022-08-17T14:34:02.121Z,25.42
2022-08-17T14:39:04.258Z,25.23
2022-08-17T14:44:05.933Z,25.08
2022-08-17T14:49:10.972Z,24.47
2022-08-17T14:54:33.524Z,25.01
2022-08-17T14:59:35.590Z,25.79
2022-08-17T15:04:40.797Z,25.39
2022-08-17T15:09:45.559Z,25.21
2022-08-17T15:14:47.090Z,25.48
2022-08-17T15:19:48.628Z,25.61
2022-08-17T15:24:50.148Z,25.22
2022-08-17T15:29:51.718Z,25.03
2022-08-17T15:34:57.053Z,25.10
2022-08-17T15:40:00.690Z,25.34
2022-08-17T15:45:10.754Z,25.61
2022-08-17T15:50:12.296Z,25.25
2022-08-17T15:55:14.724Z,25.33
2022-08-17T16:00:17.280Z,24.71
2022-08-17T16:05:21.652Z,24.87
2022-08-17T16:10:35.658Z,24.56
2022-08-17T16:15:38.065Z,24.60
2022-08-17T16:20:39.586Z,24.34
2022-08-17T16:25:52.884Z,24.23
2022-08-17T16:30:55.719Z,23.61
2022-08-17T16:35:57.234Z,24.42
2022-08-17T16:40:58.740Z,23.69
2022-08-17T16:46:00.853Z,24.01
2022-08-17T16:51:04.505Z,24.19
2022-08-17T16:56:07.186Z,24.15
2022-08-17T17:01:08.752Z,24.13
2022-08-17T17:06:27.767Z,23.03
2022-08-17T17:11:34.094Z,23.14
2022-08-17T17:16:58.659Z,23.52
2022-08-17T17:22:03.790Z,23.60
2022-08-17T17:27:26.506Z,23.72
2022-08-17T17:32:37.984Z,23.81
2022-08-17T17:37:39.511Z,23.57
2022-08-17T17:42:41.271Z,23.38
2022-08-17T17:47:42.854Z,23.55
2022-08-17T17:52:56.063Z,23.30
2022-08-17T17:58:13.369Z,23.29
2022-08-17T18:03:22.334Z,23.33
2022-08-17T18:08:33.961Z,23.17
2022-08-17T18:14:14.802Z,23.18
2022-08-17T18:19:20.341Z,23.50
2022-08-17T18:24:32.970Z,23.46
2022-08-17T18:29:39.905Z,23.40
2022-08-17T18:34:47.922Z,23.47
2022-08-17T18:39:50.208Z,23.31
2022-08-17T18:44:54.967Z,23.63
2022-08-17T18:49:58.757Z,23.44
2022-08-17T18:55:00.113Z,23.63
2022-08-17T19:00:02.043Z,23.20
2022-08-17T19:05:32.723Z,23.34
2022-08-17T19:10:46.304Z,23.50
2022-08-17T19:16:18.022Z,23.75
2022-08-17T19:21:30.769Z,23.75
2022-08-17T19:26:54.451Z,23.31
2022-08-17T19:31:58.438Z,22.86
2022-08-17T19:37:11.394Z,22.83
2022-08-17T19:42:31.056Z,23.18
2022-08-17T19:48:03.335Z,22.67
2022-08-17T19:53:13.524Z,22.37
2022-08-17T19:58:26.824Z,22.51
2022-08-17T20:03:35.256Z,22.32
2022-08-17T20:08:39.165Z,22.36
2022-08-17T20:13:49.684Z,22.80
2022-08-17T20:19:04.830Z,23.03
2022-08-17T20:24:35.843Z,21.41
2022-08-17T20:29:52.177Z,21.78
2022-08-17T20:35:16.769Z,21.82
2022-08-17T20:40:21.340Z,22.20
2022-08-17T20:45:25.041Z,22.03
2022-08-17T20:50:38.533Z,22.12
2022-08-17T20:55:52.516Z,22.12
2022-08-17T21:00:57.378Z,22.11
2022-08-17T21:06:16.848Z,21.96
2022-08-17T21:11:56.778Z,22.18
2022-08-17T21:17:01.320Z,22.55
2022-08-17T21:22:53.827Z,22.60
2022-08-17T21:28:34.320Z,19.81
2022-08-17T21:33:37.854Z,18.96
2022-08-17T21:38:41.742Z,19.71
2022-08-17T21:43:46.466Z,20.59
2022-08-17T21:48:50.465Z,20.90
2022-08-17T21:54:00.499Z,21.06
2022-08-17T21:59:27.160Z,21.42
2022-08-17T22:04:29.020Z,21.44
2022-08-17T22:09:49.039Z,21.84
2022-08-17T22:14:57.932Z,21.63
2022-08-17T22:20:18.458Z,21.89
2022-08-17T22:25:20.635Z,22.02
2022-08-17T22:30:26.289Z,21.70
2022-08-17T22:35:33.300Z,21.94
2022-08-17T22:40:34.810Z,22.06
2022-08-17T22:45:40.386Z,22.10
2022-08-17T22:50:41.924Z,22.53
2022-08-17T22:56:14.025Z,22.33
2022-08-17T23:01:32.581Z,21.85
2022-08-17T23:06:35.072Z,21.95
2022-08-17T23:11:48.703Z,22.16
2022-08-17T23:16:51.230Z,22.25
2022-08-17T23:21:55.223Z,22.42
2022-08-17T23:26:59.515Z,22.02
2022-08-17T23:32:01.429Z,22.44
2022-08-17T23:37:04.262Z,22.71
2022-08-17T23:42:08.090Z,22.56
2022-08-17T23:47:10.362Z,23.00
2022-08-17T23:52:15.011Z,23.07
2022-08-17T23:57:19.602Z,21.86
